sensor_id;sensor_type;location;lat;lon;timestamp;P1;durP1;ratioP1;P2;durP2;ratioP2
62903;SDS011;49000;50.698;13.322;2024-02-26T00:00:14;22.67;;;12.07;;
62903;SDS011;49000;50.698;13.322;2024-02-26T00:02:40;17.93;;;10.57;;
62903;SDS011;49000;50.698;13.322;2024-02-26T00:05:06;19.90;;;12.10;;
62903;SDS011;49000;50.698;13.322;2024-02-26T00:07:32;20.17;;;12.60;;
62903;SDS011;49000;50.698;13.322;2024-02-26T00:09:58;19.37;;;12.00;;
62903;SDS011;49000;50.698;13.322;2024-02-26T00:12:23;19.47;;;11.97;;
62903;SDS011;49000;50.698;13.322;2024-02-26T00:14:49;19.70;;;11.63;;
62903;SDS011;49000;50.698;13.322;2024-02-26T00:17:15;19.77;;;11.57;;
62903;SDS011;49000;50.698;13.322;2024-02-26T00:19:40;18.60;;;11.20;;
62903;SDS011;49000;50.698;13.322;2024-02-26T00:22:06;16.87;;;10.77;;
62903;SDS011;49000;50.698;13.322;2024-02-26T00:24:32;19.10;;;10.87;;
62903;SDS011;49000;50.698;13.322;2024-02-26T00:26:58;19.43;;;11.53;;
62903;SDS011;49000;50.698;13.322;2024-02-26T00:29:24;21.50;;;12.43;;
62903;SDS011;49000;50.698;13.322;2024-02-26T00:31:50;22.00;;;12.47;;
62903;SDS011;49000;50.698;13.322;2024-02-26T00:34:16;20.73;;;11.90;;
62903;SDS011;49000;50.698;13.322;2024-02-26T00:36:41;21.90;;;12.20;;
62903;SDS011;49000;50.698;13.322;2024-02-26T00:39:07;19.97;;;12.57;;
62903;SDS011;49000;50.698;13.322;2024-02-26T00:41:33;23.40;;;13.37;;
62903;SDS011;49000;50.698;13.322;2024-02-26T00:44:02;20.83;;;12.00;;
62903;SDS011;49000;50.698;13.322;2024-02-26T00:46:28;21.90;;;13.50;;
62903;SDS011;49000;50.698;13.322;2024-02-26T00:48:53;22.30;;;12.80;;
62903;SDS011;49000;50.698;13.322;2024-02-26T00:51:19;19.67;;;11.73;;
62903;SDS011;49000;50.698;13.322;2024-02-26T00:53:44;19.27;;;11.70;;
62903;SDS011;49000;50.698;13.322;2024-02-26T00:56:10;20.70;;;11.97;;
62903;SDS011;49000;50.698;13.322;2024-02-26T00:58:35;20.27;;;12.37;;
62903;SDS011;49000;50.698;13.322;2024-02-26T01:01:00;21.70;;;12.10;;
62903;SDS011;49000;50.698;13.322;2024-02-26T01:03:26;23.67;;;13.37;;
62903;SDS011;49000;50.698;13.322;2024-02-26T01:05:51;19.30;;;11.63;;
62903;SDS011;49000;50.698;13.322;2024-02-26T01:08:17;20.80;;;12.13;;
62903;SDS011;49000;50.698;13.322;2024-02-26T01:10:42;22.20;;;12.07;;
62903;SDS011;49000;50.698;13.322;2024-02-26T01:13:08;20.40;;;12.13;;
62903;SDS011;49000;50.698;13.322;2024-02-26T01:15:33;20.43;;;12.03;;
62903;SDS011;49000;50.698;13.322;2024-02-26T01:17:58;21.87;;;13.20;;
62903;SDS011;49000;50.698;13.322;2024-02-26T01:20:24;20.53;;;12.27;;
62903;SDS011;49000;50.698;13.322;2024-02-26T01:22:49;20.20;;;12.00;;
62903;SDS011;49000;50.698;13.322;2024-02-26T01:25:15;17.10;;;11.13;;
62903;SDS011;49000;50.698;13.322;2024-02-26T01:27:40;19.90;;;11.20;;
62903;SDS011;49000;50.698;13.322;2024-02-26T01:30:07;18.53;;;10.83;;
62903;SDS011;49000;50.698;13.322;2024-02-26T01:32:33;17.60;;;10.40;;
62903;SDS011;49000;50.698;13.322;2024-02-26T01:35:01;18.80;;;10.30;;
62903;SDS011;49000;50.698;13.322;2024-02-26T01:37:28;21.63;;;11.37;;
62903;SDS011;49000;50.698;13.322;2024-02-26T01:39:54;18.90;;;11.20;;
62903;SDS011;49000;50.698;13.322;2024-02-26T01:42:20;17.03;;;9.97;;
62903;SDS011;49000;50.698;13.322;2024-02-26T01:44:46;16.33;;;9.83;;
62903;SDS011;49000;50.698;13.322;2024-02-26T01:47:11;16.90;;;9.77;;
62903;SDS011;49000;50.698;13.322;2024-02-26T01:49:38;15.37;;;9.50;;
62903;SDS011;49000;50.698;13.322;2024-02-26T01:52:04;16.47;;;9.27;;
62903;SDS011;49000;50.698;13.322;2024-02-26T01:54:31;17.27;;;9.80;;
62903;SDS011;49000;50.698;13.322;2024-02-26T01:57:00;14.63;;;9.57;;
62903;SDS011;49000;50.698;13.322;2024-02-26T01:59:26;15.37;;;9.23;;
62903;SDS011;49000;50.698;13.322;2024-02-26T02:01:54;15.23;;;8.97;;
62903;SDS011;49000;50.698;13.322;2024-02-26T02:04:23;14.53;;;8.90;;
62903;SDS011;49000;50.698;13.322;2024-02-26T02:06:49;16.43;;;8.93;;
62903;SDS011;49000;50.698;13.322;2024-02-26T02:09:15;16.73;;;9.17;;
62903;SDS011;49000;50.698;13.322;2024-02-26T02:11:41;15.57;;;8.60;;
62903;SDS011;49000;50.698;13.322;2024-02-26T02:14:06;15.77;;;9.03;;
62903;SDS011;49000;50.698;13.322;2024-02-26T02:16:32;13.90;;;8.40;;
62903;SDS011;49000;50.698;13.322;2024-02-26T02:18:58;15.47;;;8.57;;
62903;SDS011;49000;50.698;13.322;2024-02-26T02:21:24;16.07;;;8.90;;
62903;SDS011;49000;50.698;13.322;2024-02-26T02:23:49;14.23;;;8.33;;
62903;SDS011;49000;50.698;13.322;2024-02-26T02:26:15;13.37;;;8.13;;
62903;SDS011;49000;50.698;13.322;2024-02-26T02:28:42;14.60;;;8.10;;
62903;SDS011;49000;50.698;13.322;2024-02-26T02:31:08;13.17;;;7.83;;
62903;SDS011;49000;50.698;13.322;2024-02-26T02:33:34;14.13;;;7.80;;
62903;SDS011;49000;50.698;13.322;2024-02-26T02:36:00;12.37;;;7.70;;
62903;SDS011;49000;50.698;13.322;2024-02-26T02:38:25;14.07;;;8.50;;
62903;SDS011;49000;50.698;13.322;2024-02-26T02:40:52;12.60;;;7.37;;
62903;SDS011;49000;50.698;13.322;2024-02-26T02:43:17;16.80;;;8.07;;
62903;SDS011;49000;50.698;13.322;2024-02-26T02:45:43;14.53;;;8.00;;
62903;SDS011;49000;50.698;13.322;2024-02-26T02:48:08;12.20;;;7.17;;
62903;SDS011;49000;50.698;13.322;2024-02-26T02:50:35;13.23;;;7.77;;
62903;SDS011;49000;50.698;13.322;2024-02-26T02:53:01;13.73;;;8.13;;
62903;SDS011;49000;50.698;13.322;2024-02-26T02:55:27;12.77;;;7.63;;
62903;SDS011;49000;50.698;13.322;2024-02-26T02:57:53;14.10;;;7.90;;
62903;SDS011;49000;50.698;13.322;2024-02-26T03:00:18;11.73;;;7.20;;
62903;SDS011;49000;50.698;13.322;2024-02-26T03:02:44;12.77;;;7.53;;
62903;SDS011;49000;50.698;13.322;2024-02-26T03:05:10;12.27;;;7.03;;
62903;SDS011;49000;50.698;13.322;2024-02-26T03:07:35;11.97;;;6.60;;
62903;SDS011;49000;50.698;13.322;2024-02-26T03:10:01;15.33;;;8.27;;
62903;SDS011;49000;50.698;13.322;2024-02-26T03:12:26;13.63;;;7.47;;
62903;SDS011;49000;50.698;13.322;2024-02-26T03:14:52;13.23;;;7.73;;
62903;SDS011;49000;50.698;13.322;2024-02-26T03:17:19;18.43;;;8.37;;
62903;SDS011;49000;50.698;13.322;2024-02-26T03:19:45;13.27;;;7.63;;
62903;SDS011;49000;50.698;13.322;2024-02-26T03:22:11;13.13;;;7.50;;
62903;SDS011;49000;50.698;13.322;2024-02-26T03:24:40;13.00;;;7.67;;
62903;SDS011;49000;50.698;13.322;2024-02-26T03:27:05;14.20;;;6.80;;
62903;SDS011;49000;50.698;13.322;2024-02-26T03:29:34;12.83;;;7.20;;
62903;SDS011;49000;50.698;13.322;2024-02-26T03:32:02;12.73;;;6.77;;
62903;SDS011;49000;50.698;13.322;2024-02-26T03:34:28;14.87;;;6.90;;
62903;SDS011;49000;50.698;13.322;2024-02-26T03:36:55;11.87;;;6.60;;
62903;SDS011;49000;50.698;13.322;2024-02-26T03:39:21;11.40;;;6.70;;
62903;SDS011;49000;50.698;13.322;2024-02-26T03:41:47;14.00;;;7.27;;
62903;SDS011;49000;50.698;13.322;2024-02-26T03:44:12;13.10;;;7.17;;
62903;SDS011;49000;50.698;13.322;2024-02-26T03:46:38;11.37;;;6.87;;
62903;SDS011;49000;50.698;13.322;2024-02-26T03:49:03;11.70;;;6.70;;
62903;SDS011;49000;50.698;13.322;2024-02-26T03:51:29;12.27;;;7.03;;
62903;SDS011;49000;50.698;13.322;2024-02-26T03:53:56;10.47;;;6.47;;
62903;SDS011;49000;50.698;13.322;2024-02-26T03:56:23;10.37;;;6.17;;
62903;SDS011;49000;50.698;13.322;2024-02-26T03:58:49;9.13;;;6.00;;
62903;SDS011;49000;50.698;13.322;2024-02-26T04:01:14;7.83;;;5.50;;
62903;SDS011;49000;50.698;13.322;2024-02-26T04:03:40;11.07;;;5.90;;
62903;SDS011;49000;50.698;13.322;2024-02-26T04:06:08;9.67;;;5.20;;
62903;SDS011;49000;50.698;13.322;2024-02-26T04:08:34;9.80;;;4.83;;
62903;SDS011;49000;50.698;13.322;2024-02-26T04:10:59;8.17;;;4.90;;
62903;SDS011;49000;50.698;13.322;2024-02-26T04:13:25;8.23;;;5.13;;
62903;SDS011;49000;50.698;13.322;2024-02-26T04:15:51;9.43;;;5.60;;
62903;SDS011;49000;50.698;13.322;2024-02-26T04:18:16;10.60;;;5.70;;
62903;SDS011;49000;50.698;13.322;2024-02-26T04:20:41;8.57;;;4.60;;
62903;SDS011;49000;50.698;13.322;2024-02-26T04:23:07;11.00;;;4.93;;
62903;SDS011;49000;50.698;13.322;2024-02-26T04:25:33;9.73;;;5.00;;
62903;SDS011;49000;50.698;13.322;2024-02-26T04:27:58;8.37;;;5.33;;
62903;SDS011;49000;50.698;13.322;2024-02-26T04:30:24;10.93;;;6.07;;
62903;SDS011;49000;50.698;13.322;2024-02-26T04:32:49;13.10;;;6.90;;
62903;SDS011;49000;50.698;13.322;2024-02-26T04:35:15;10.50;;;6.30;;
62903;SDS011;49000;50.698;13.322;2024-02-26T04:37:40;13.70;;;7.10;;
62903;SDS011;49000;50.698;13.322;2024-02-26T04:40:06;11.80;;;6.20;;
62903;SDS011;49000;50.698;13.322;2024-02-26T04:42:32;12.40;;;6.50;;
62903;SDS011;49000;50.698;13.322;2024-02-26T04:44:58;9.83;;;6.40;;
62903;SDS011;49000;50.698;13.322;2024-02-26T04:47:23;10.60;;;6.43;;
62903;SDS011;49000;50.698;13.322;2024-02-26T04:49:49;11.40;;;6.57;;
62903;SDS011;49000;50.698;13.322;2024-02-26T04:52:15;14.40;;;7.40;;
62903;SDS011;49000;50.698;13.322;2024-02-26T04:54:41;15.40;;;8.90;;
62903;SDS011;49000;50.698;13.322;2024-02-26T04:57:06;15.00;;;7.67;;
62903;SDS011;49000;50.698;13.322;2024-02-26T04:59:32;11.60;;;7.10;;
62903;SDS011;49000;50.698;13.322;2024-02-26T05:01:57;12.97;;;7.67;;
62903;SDS011;49000;50.698;13.322;2024-02-26T05:04:23;15.03;;;7.93;;
62903;SDS011;49000;50.698;13.322;2024-02-26T05:06:48;14.23;;;7.53;;
62903;SDS011;49000;50.698;13.322;2024-02-26T05:09:14;18.67;;;8.97;;
62903;SDS011;49000;50.698;13.322;2024-02-26T05:11:39;13.80;;;8.23;;
62903;SDS011;49000;50.698;13.322;2024-02-26T05:14:05;12.73;;;7.40;;
62903;SDS011;49000;50.698;13.322;2024-02-26T05:16:31;16.97;;;8.20;;
62903;SDS011;49000;50.698;13.322;2024-02-26T05:18:57;13.83;;;7.77;;
62903;SDS011;49000;50.698;13.322;2024-02-26T05:21:22;15.27;;;9.03;;
62903;SDS011;49000;50.698;13.322;2024-02-26T05:23:48;16.10;;;8.37;;
62903;SDS011;49000;50.698;13.322;2024-02-26T05:26:22;14.97;;;7.73;;
62903;SDS011;49000;50.698;13.322;2024-02-26T05:28:48;14.07;;;7.67;;
62903;SDS011;49000;50.698;13.322;2024-02-26T05:31:14;14.57;;;8.30;;
62903;SDS011;49000;50.698;13.322;2024-02-26T05:33:40;13.07;;;8.20;;
62903;SDS011;49000;50.698;13.322;2024-02-26T05:36:05;16.20;;;8.50;;
62903;SDS011;49000;50.698;13.322;2024-02-26T05:38:31;13.13;;;8.00;;
62903;SDS011;49000;50.698;13.322;2024-02-26T05:40:57;15.17;;;8.27;;
62903;SDS011;49000;50.698;13.322;2024-02-26T05:43:23;16.83;;;8.57;;
62903;SDS011;49000;50.698;13.322;2024-02-26T05:45:49;15.77;;;8.63;;
62903;SDS011;49000;50.698;13.322;2024-02-26T05:48:15;19.80;;;9.13;;
62903;SDS011;49000;50.698;13.322;2024-02-26T05:50:40;13.63;;;8.27;;
62903;SDS011;49000;50.698;13.322;2024-02-26T05:53:06;15.97;;;8.20;;
62903;SDS011;49000;50.698;13.322;2024-02-26T05:55:31;16.57;;;9.00;;
62903;SDS011;49000;50.698;13.322;2024-02-26T05:57:57;15.77;;;7.73;;
62903;SDS011;49000;50.698;13.322;2024-02-26T06:00:22;19.50;;;10.03;;
62903;SDS011;49000;50.698;13.322;2024-02-26T06:02:48;13.43;;;7.83;;
62903;SDS011;49000;50.698;13.322;2024-02-26T06:05:13;12.83;;;8.20;;
62903;SDS011;49000;50.698;13.322;2024-02-26T06:07:39;14.87;;;8.57;;
62903;SDS011;49000;50.698;13.322;2024-02-26T06:10:04;15.80;;;10.03;;
62903;SDS011;49000;50.698;13.322;2024-02-26T06:12:30;20.33;;;11.43;;
62903;SDS011;49000;50.698;13.322;2024-02-26T06:14:56;21.27;;;12.37;;
62903;SDS011;49000;50.698;13.322;2024-02-26T06:17:22;22.00;;;12.00;;
62903;SDS011;49000;50.698;13.322;2024-02-26T06:19:47;18.33;;;10.67;;
62903;SDS011;49000;50.698;13.322;2024-02-26T06:22:13;20.87;;;10.63;;
62903;SDS011;49000;50.698;13.322;2024-02-26T06:24:38;24.47;;;12.37;;
62903;SDS011;49000;50.698;13.322;2024-02-26T06:27:04;25.47;;;14.10;;
62903;SDS011;49000;50.698;13.322;2024-02-26T06:29:29;29.07;;;15.47;;
62903;SDS011;49000;50.698;13.322;2024-02-26T06:31:55;22.43;;;14.17;;
62903;SDS011;49000;50.698;13.322;2024-02-26T06:34:20;34.60;;;19.07;;
62903;SDS011;49000;50.698;13.322;2024-02-26T06:36:46;25.03;;;15.80;;
62903;SDS011;49000;50.698;13.322;2024-02-26T06:39:12;37.63;;;22.90;;
62903;SDS011;49000;50.698;13.322;2024-02-26T06:41:37;26.90;;;18.13;;
62903;SDS011;49000;50.698;13.322;2024-02-26T06:44:04;26.80;;;17.40;;
62903;SDS011;49000;50.698;13.322;2024-02-26T06:46:30;36.53;;;21.20;;
62903;SDS011;49000;50.698;13.322;2024-02-26T06:48:55;32.33;;;20.80;;
62903;SDS011;49000;50.698;13.322;2024-02-26T06:51:21;43.60;;;23.47;;
62903;SDS011;49000;50.698;13.322;2024-02-26T06:53:47;48.00;;;29.17;;
62903;SDS011;49000;50.698;13.322;2024-02-26T06:56:13;49.13;;;28.83;;
62903;SDS011;49000;50.698;13.322;2024-02-26T06:58:39;47.23;;;26.50;;
62903;SDS011;49000;50.698;13.322;2024-02-26T07:01:04;41.60;;;23.10;;
62903;SDS011;49000;50.698;13.322;2024-02-26T07:03:30;38.17;;;22.23;;
62903;SDS011;49000;50.698;13.322;2024-02-26T07:05:55;41.70;;;21.80;;
62903;SDS011;49000;50.698;13.322;2024-02-26T07:08:21;35.77;;;19.47;;
62903;SDS011;49000;50.698;13.322;2024-02-26T07:10:47;31.83;;;18.10;;
62903;SDS011;49000;50.698;13.322;2024-02-26T07:13:13;32.57;;;17.10;;
62903;SDS011;49000;50.698;13.322;2024-02-26T07:15:38;26.90;;;15.47;;
62903;SDS011;49000;50.698;13.322;2024-02-26T07:18:04;23.30;;;13.50;;
62903;SDS011;49000;50.698;13.322;2024-02-26T07:20:29;19.17;;;11.30;;
62903;SDS011;49000;50.698;13.322;2024-02-26T07:22:55;20.57;;;11.57;;
62903;SDS011;49000;50.698;13.322;2024-02-26T07:25:21;16.10;;;10.30;;
62903;SDS011;49000;50.698;13.322;2024-02-26T07:27:47;16.93;;;9.90;;
62903;SDS011;49000;50.698;13.322;2024-02-26T07:30:12;16.20;;;9.53;;
62903;SDS011;49000;50.698;13.322;2024-02-26T07:32:38;14.83;;;9.53;;
62903;SDS011;49000;50.698;13.322;2024-02-26T07:35:04;16.40;;;8.83;;
62903;SDS011;49000;50.698;13.322;2024-02-26T07:37:30;15.63;;;7.77;;
62903;SDS011;49000;50.698;13.322;2024-02-26T07:39:55;15.43;;;8.53;;
62903;SDS011;49000;50.698;13.322;2024-02-26T07:42:21;13.07;;;8.53;;
62903;SDS011;49000;50.698;13.322;2024-02-26T07:44:46;11.20;;;7.40;;
62903;SDS011;49000;50.698;13.322;2024-02-26T07:47:12;17.77;;;9.23;;
62903;SDS011;49000;50.698;13.322;2024-02-26T07:49:37;12.47;;;8.00;;
62903;SDS011;49000;50.698;13.322;2024-02-26T07:52:04;16.43;;;7.30;;
62903;SDS011;49000;50.698;13.322;2024-02-26T07:54:29;12.63;;;7.50;;
62903;SDS011;49000;50.698;13.322;2024-02-26T07:56:55;12.20;;;7.07;;
62903;SDS011;49000;50.698;13.322;2024-02-26T07:59:20;11.10;;;6.67;;
62903;SDS011;49000;50.698;13.322;2024-02-26T08:01:49;9.87;;;6.27;;
62903;SDS011;49000;50.698;13.322;2024-02-26T08:04:16;12.03;;;7.70;;
62903;SDS011;49000;50.698;13.322;2024-02-26T08:06:41;14.67;;;8.60;;
62903;SDS011;49000;50.698;13.322;2024-02-26T08:09:07;12.40;;;8.23;;
62903;SDS011;49000;50.698;13.322;2024-02-26T08:11:33;14.10;;;8.67;;
62903;SDS011;49000;50.698;13.322;2024-02-26T08:13:59;14.87;;;8.00;;
62903;SDS011;49000;50.698;13.322;2024-02-26T08:16:24;12.50;;;7.40;;
62903;SDS011;49000;50.698;13.322;2024-02-26T08:18:50;11.67;;;7.50;;
62903;SDS011;49000;50.698;13.322;2024-02-26T08:21:15;15.30;;;8.83;;
62903;SDS011;49000;50.698;13.322;2024-02-26T08:23:42;14.07;;;8.80;;
62903;SDS011;49000;50.698;13.322;2024-02-26T08:26:08;13.67;;;7.50;;
62903;SDS011;49000;50.698;13.322;2024-02-26T08:28:36;10.87;;;6.60;;
62903;SDS011;49000;50.698;13.322;2024-02-26T08:31:02;14.50;;;8.33;;
62903;SDS011;49000;50.698;13.322;2024-02-26T08:33:28;15.23;;;8.77;;
62903;SDS011;49000;50.698;13.322;2024-02-26T08:35:54;13.67;;;8.17;;
62903;SDS011;49000;50.698;13.322;2024-02-26T08:38:19;12.43;;;8.60;;
62903;SDS011;49000;50.698;13.322;2024-02-26T08:40:44;14.97;;;8.77;;
62903;SDS011;49000;50.698;13.322;2024-02-26T08:43:10;13.63;;;8.60;;
62903;SDS011;49000;50.698;13.322;2024-02-26T08:45:35;12.47;;;8.77;;
62903;SDS011;49000;50.698;13.322;2024-02-26T08:48:02;15.13;;;8.77;;
62903;SDS011;49000;50.698;13.322;2024-02-26T08:50:27;12.83;;;9.10;;
62903;SDS011;49000;50.698;13.322;2024-02-26T08:52:53;15.53;;;8.40;;
62903;SDS011;49000;50.698;13.322;2024-02-26T08:55:18;13.63;;;9.20;;
62903;SDS011;49000;50.698;13.322;2024-02-26T08:57:44;14.53;;;9.80;;
62903;SDS011;49000;50.698;13.322;2024-02-26T09:00:10;11.87;;;8.40;;
62903;SDS011;49000;50.698;13.322;2024-02-26T09:02:37;15.27;;;8.07;;
62903;SDS011;49000;50.698;13.322;2024-02-26T09:05:07;10.67;;;7.43;;
62903;SDS011;49000;50.698;13.322;2024-02-26T09:07:33;11.33;;;7.97;;
62903;SDS011;49000;50.698;13.322;2024-02-26T09:09:58;10.23;;;7.30;;
62903;SDS011;49000;50.698;13.322;2024-02-26T09:12:24;12.43;;;7.80;;
62903;SDS011;49000;50.698;13.322;2024-02-26T09:14:49;9.73;;;7.07;;
62903;SDS011;49000;50.698;13.322;2024-02-26T09:17:15;12.37;;;7.30;;
62903;SDS011;49000;50.698;13.322;2024-02-26T09:19:40;10.17;;;6.77;;
62903;SDS011;49000;50.698;13.322;2024-02-26T09:22:07;11.67;;;7.27;;
62903;SDS011;49000;50.698;13.322;2024-02-26T09:24:32;9.70;;;7.00;;
62903;SDS011;49000;50.698;13.322;2024-02-26T09:26:58;10.00;;;6.97;;
62903;SDS011;49000;50.698;13.322;2024-02-26T09:29:24;10.00;;;6.87;;
62903;SDS011;49000;50.698;13.322;2024-02-26T09:31:51;12.93;;;8.10;;
62903;SDS011;49000;50.698;13.322;2024-02-26T09:34:16;10.87;;;7.40;;
62903;SDS011;49000;50.698;13.322;2024-02-26T09:36:42;10.40;;;7.37;;
62903;SDS011;49000;50.698;13.322;2024-02-26T09:39:08;10.17;;;7.43;;
62903;SDS011;49000;50.698;13.322;2024-02-26T09:41:36;11.67;;;7.50;;
62903;SDS011;49000;50.698;13.322;2024-02-26T09:44:02;10.70;;;7.03;;
62903;SDS011;49000;50.698;13.322;2024-02-26T09:46:30;9.40;;;7.10;;
62903;SDS011;49000;50.698;13.322;2024-02-26T09:48:55;11.40;;;8.23;;
62903;SDS011;49000;50.698;13.322;2024-02-26T09:51:24;10.97;;;7.63;;
62903;SDS011;49000;50.698;13.322;2024-02-26T09:53:51;13.23;;;6.83;;
62903;SDS011;49000;50.698;13.322;2024-02-26T09:56:17;11.80;;;7.20;;
62903;SDS011;49000;50.698;13.322;2024-02-26T09:58:43;10.80;;;6.87;;
62903;SDS011;49000;50.698;13.322;2024-02-26T10:01:13;9.63;;;6.47;;
62903;SDS011;49000;50.698;13.322;2024-02-26T10:03:41;10.50;;;7.00;;
62903;SDS011;49000;50.698;13.322;2024-02-26T10:06:09;11.53;;;7.97;;
62903;SDS011;49000;50.698;13.322;2024-02-26T10:08:35;11.07;;;7.43;;
62903;SDS011;49000;50.698;13.322;2024-02-26T10:11:04;10.33;;;7.90;;
62903;SDS011;49000;50.698;13.322;2024-02-26T10:13:31;11.53;;;8.20;;
62903;SDS011;49000;50.698;13.322;2024-02-26T10:15:57;9.47;;;7.27;;
62903;SDS011;49000;50.698;13.322;2024-02-26T10:18:23;12.37;;;7.10;;
62903;SDS011;49000;50.698;13.322;2024-02-26T10:20:58;11.73;;;7.43;;
62903;SDS011;49000;50.698;13.322;2024-02-26T10:23:25;10.67;;;6.63;;
62903;SDS011;49000;50.698;13.322;2024-02-26T10:25:54;10.43;;;6.90;;
62903;SDS011;49000;50.698;13.322;2024-02-26T10:28:20;11.13;;;7.43;;
62903;SDS011;49000;50.698;13.322;2024-02-26T10:30:45;9.50;;;7.53;;
62903;SDS011;49000;50.698;13.322;2024-02-26T10:33:11;8.30;;;6.50;;
62903;SDS011;49000;50.698;13.322;2024-02-26T10:35:39;9.50;;;6.77;;
62903;SDS011;49000;50.698;13.322;2024-02-26T10:38:06;11.47;;;6.60;;
62903;SDS011;49000;50.698;13.322;2024-02-26T10:40:32;11.40;;;6.90;;
62903;SDS011;49000;50.698;13.322;2024-02-26T10:42:57;11.13;;;7.07;;
62903;SDS011;49000;50.698;13.322;2024-02-26T10:45:23;9.30;;;6.70;;
62903;SDS011;49000;50.698;13.322;2024-02-26T10:47:49;11.40;;;7.63;;
62903;SDS011;49000;50.698;13.322;2024-02-26T10:50:15;10.20;;;6.87;;
62903;SDS011;49000;50.698;13.322;2024-02-26T10:52:41;11.40;;;7.10;;
62903;SDS011;49000;50.698;13.322;2024-02-26T10:55:07;9.70;;;6.73;;
62903;SDS011;49000;50.698;13.322;2024-02-26T10:57:40;20.43;;;7.33;;
62903;SDS011;49000;50.698;13.322;2024-02-26T11:00:07;10.13;;;7.20;;
62903;SDS011;49000;50.698;13.322;2024-02-26T11:02:35;10.73;;;7.20;;
62903;SDS011;49000;50.698;13.322;2024-02-26T11:05:02;10.67;;;7.23;;
62903;SDS011;49000;50.698;13.322;2024-02-26T11:07:28;10.07;;;7.27;;
62903;SDS011;49000;50.698;13.322;2024-02-26T11:09:55;10.87;;;7.63;;
62903;SDS011;49000;50.698;13.322;2024-02-26T11:12:22;11.47;;;7.73;;
62903;SDS011;49000;50.698;13.322;2024-02-26T11:14:49;10.93;;;8.13;;
62903;SDS011;49000;50.698;13.322;2024-02-26T11:17:19;12.07;;;8.03;;
62903;SDS011;49000;50.698;13.322;2024-02-26T11:19:46;13.50;;;8.37;;
62903;SDS011;49000;50.698;13.322;2024-02-26T11:22:14;12.93;;;8.93;;
62903;SDS011;49000;50.698;13.322;2024-02-26T11:24:40;12.30;;;8.57;;
62903;SDS011;49000;50.698;13.322;2024-02-26T11:27:07;14.20;;;9.30;;
62903;SDS011;49000;50.698;13.322;2024-02-26T11:29:39;12.77;;;9.80;;
62903;SDS011;49000;50.698;13.322;2024-02-26T11:32:09;14.00;;;9.57;;
62903;SDS011;49000;50.698;13.322;2024-02-26T11:34:35;13.60;;;9.33;;
62903;SDS011;49000;50.698;13.322;2024-02-26T11:37:11;14.03;;;9.40;;
62903;SDS011;49000;50.698;13.322;2024-02-26T11:39:39;13.23;;;9.10;;
62903;SDS011;49000;50.698;13.322;2024-02-26T11:42:09;13.40;;;9.10;;
62903;SDS011;49000;50.698;13.322;2024-02-26T11:44:35;12.53;;;8.73;;
62903;SDS011;49000;50.698;13.322;2024-02-26T11:47:09;13.00;;;9.37;;
62903;SDS011;49000;50.698;13.322;2024-02-26T11:49:35;12.23;;;8.73;;
62903;SDS011;49000;50.698;13.322;2024-02-26T11:52:00;12.23;;;8.83;;
62903;SDS011;49000;50.698;13.322;2024-02-26T11:59:53;14.40;;;8.80;;
62903;SDS011;49000;50.698;13.322;2024-02-26T12:05:20;16.40;;;10.47;;
62903;SDS011;49000;50.698;13.322;2024-02-26T12:08:22;16.30;;;11.23;;
62903;SDS011;49000;50.698;13.322;2024-02-26T12:10:43;18.13;;;12.07;;
62903;SDS011;49000;50.698;13.322;2024-02-26T12:13:13;18.80;;;11.53;;
62903;SDS011;49000;50.698;13.322;2024-02-26T12:15:43;15.57;;;11.80;;
62903;SDS011;49000;50.698;13.322;2024-02-26T12:18:12;17.87;;;11.27;;
62903;SDS011;49000;50.698;13.322;2024-02-26T12:20:42;16.17;;;11.70;;
62903;SDS011;49000;50.698;13.322;2024-02-26T12:23:09;16.73;;;11.77;;
62903;SDS011;49000;50.698;13.322;2024-02-26T12:25:39;17.53;;;11.70;;
62903;SDS011;49000;50.698;13.322;2024-02-26T12:28:04;13.90;;;10.80;;
62903;SDS011;49000;50.698;13.322;2024-02-26T12:30:30;17.90;;;11.20;;
62903;SDS011;49000;50.698;13.322;2024-02-26T12:32:56;20.07;;;12.50;;
62903;SDS011;49000;50.698;13.322;2024-02-26T12:35:22;18.43;;;12.17;;
62903;SDS011;49000;50.698;13.322;2024-02-26T12:37:50;15.80;;;11.27;;
62903;SDS011;49000;50.698;13.322;2024-02-26T12:40:17;16.70;;;12.00;;
62903;SDS011;49000;50.698;13.322;2024-02-26T12:42:42;17.77;;;11.50;;
62903;SDS011;49000;50.698;13.322;2024-02-26T12:45:09;18.50;;;11.37;;
62903;SDS011;49000;50.698;13.322;2024-02-26T12:47:39;17.67;;;11.60;;
62903;SDS011;49000;50.698;13.322;2024-02-26T12:50:06;16.33;;;11.83;;
62903;SDS011;49000;50.698;13.322;2024-02-26T12:52:37;16.80;;;10.83;;
62903;SDS011;49000;50.698;13.322;2024-02-26T12:55:05;17.37;;;11.83;;
62903;SDS011;49000;50.698;13.322;2024-02-26T12:57:34;21.47;;;12.00;;
62903;SDS011;49000;50.698;13.322;2024-02-26T13:00:01;16.73;;;11.10;;
62903;SDS011;49000;50.698;13.322;2024-02-26T13:02:28;17.77;;;11.33;;
62903;SDS011;49000;50.698;13.322;2024-02-26T13:04:55;14.93;;;10.20;;
62903;SDS011;49000;50.698;13.322;2024-02-26T13:07:21;14.47;;;9.37;;
62903;SDS011;49000;50.698;13.322;2024-02-26T13:09:47;12.60;;;9.47;;
62903;SDS011;49000;50.698;13.322;2024-02-26T13:12:12;12.93;;;9.67;;
62903;SDS011;49000;50.698;13.322;2024-02-26T13:14:39;15.23;;;9.63;;
62903;SDS011;49000;50.698;13.322;2024-02-26T13:17:04;14.23;;;9.30;;
62903;SDS011;49000;50.698;13.322;2024-02-26T13:19:30;14.70;;;9.80;;
62903;SDS011;49000;50.698;13.322;2024-02-26T13:21:55;13.37;;;10.43;;
62903;SDS011;49000;50.698;13.322;2024-02-26T13:24:21;16.43;;;10.80;;
62903;SDS011;49000;50.698;13.322;2024-02-26T13:26:47;13.90;;;10.67;;
62903;SDS011;49000;50.698;13.322;2024-02-26T13:29:19;15.10;;;10.40;;
62903;SDS011;49000;50.698;13.322;2024-02-26T13:31:45;13.53;;;10.13;;
62903;SDS011;49000;50.698;13.322;2024-02-26T13:34:11;14.20;;;10.83;;
62903;SDS011;49000;50.698;13.322;2024-02-26T13:36:56;15.90;;;9.80;;
62903;SDS011;49000;50.698;13.322;2024-02-26T13:39:25;12.77;;;9.50;;
62903;SDS011;49000;50.698;13.322;2024-02-26T13:41:52;14.30;;;10.17;;
62903;SDS011;49000;50.698;13.322;2024-02-26T13:44:18;16.93;;;10.17;;
62903;SDS011;49000;50.698;13.322;2024-02-26T13:46:44;16.67;;;9.83;;
62903;SDS011;49000;50.698;13.322;2024-02-26T13:49:10;15.57;;;9.90;;
62903;SDS011;49000;50.698;13.322;2024-02-26T13:51:36;14.13;;;9.73;;
62903;SDS011;49000;50.698;13.322;2024-02-26T13:54:02;13.37;;;9.17;;
62903;SDS011;49000;50.698;13.322;2024-02-26T13:56:28;15.30;;;10.17;;
62903;SDS011;49000;50.698;13.322;2024-02-26T13:58:54;16.00;;;9.87;;
62903;SDS011;49000;50.698;13.322;2024-02-26T14:01:19;12.60;;;9.47;;
62903;SDS011;49000;50.698;13.322;2024-02-26T14:03:45;13.60;;;9.13;;
62903;SDS011;49000;50.698;13.322;2024-02-26T14:06:10;15.43;;;9.97;;
62903;SDS011;49000;50.698;13.322;2024-02-26T14:08:36;13.50;;;9.43;;
62903;SDS011;49000;50.698;13.322;2024-02-26T14:11:01;14.67;;;10.10;;
62903;SDS011;49000;50.698;13.322;2024-02-26T14:13:27;15.03;;;10.00;;
62903;SDS011;49000;50.698;13.322;2024-02-26T14:15:52;17.63;;;11.33;;
62903;SDS011;49000;50.698;13.322;2024-02-26T14:18:18;18.87;;;11.83;;
62903;SDS011;49000;50.698;13.322;2024-02-26T14:20:43;17.63;;;12.23;;